createdAt,value
2018-05-01T00:00:36.737Z,45.42
2018-05-01T00:01:36.714Z,35.13
2018-05-01T00:02:36.701Z,36.47
2018-05-01T00:03:36.671Z,39.42
2018-05-01T00:04:36.648Z,42.56
2018-05-01T00:05:36.627Z,48.47
2018-05-01T00:06:36.606Z,56.18
2018-05-01T00:07:36.582Z,53.89
2018-05-01T00:08:36.559Z,49.90
2018-05-01T00:09:36.538Z,52.18
2018-05-01T00:10:36.516Z,51.14
2018-05-01T00:11:36.496Z,37.99
2018-05-01T00:12:36.470Z,40.47
2018-05-01T00:13:36.448Z,39.61
2018-05-01T00:14:36.427Z,34.66
2018-05-01T00:15:36.404Z,34.85
2018-05-01T00:16:36.382Z,35.13
2018-05-01T00:17:36.359Z,40.28
2018-05-01T00:18:36.339Z,36.28
2018-05-01T00:19:36.315Z,29.23
2018-05-01T00:20:36.294Z,27.99
2018-05-01T00:21:36.270Z,27.14
2018-05-01T00:22:36.248Z,30.47
2018-05-01T00:23:36.226Z,30.18
2018-05-01T00:24:36.203Z,29.04
2018-05-01T00:25:36.180Z,30.94
2018-05-01T00:26:36.160Z,29.99
2018-05-01T00:27:36.137Z,31.90
2018-05-01T00:28:36.116Z,29.42
2018-05-01T00:29:36.092Z,35.80
2018-05-01T00:30:36.070Z,34.75
2018-05-01T00:31:36.048Z,34.56
2018-05-01T00:32:36.025Z,34.56
2018-05-01T00:33:36.003Z,27.23
2018-05-01T00:34:35.979Z,31.99
2018-05-01T00:35:35.960Z,38.09
2018-05-01T00:36:35.935Z,38.17
2018-05-01T00:37:35.914Z,36.74
2018-05-01T00:38:36.642Z,29.03
2018-05-01T00:39:35.870Z,26.17
2018-05-01T00:40:35.846Z,24.37
2018-05-01T00:41:35.825Z,25.41
2018-05-01T00:42:35.801Z,26.74
2018-05-01T00:43:35.780Z,25.70
2018-05-01T00:44:35.756Z,27.69
2018-05-01T00:45:35.734Z,33.69
2018-05-01T00:46:35.714Z,30.55
2018-05-01T00:47:35.690Z,27.03
2018-05-01T00:48:35.678Z,21.41
2018-05-01T00:49:37.146Z,26.93
2018-05-01T00:50:35.622Z,24.84
2018-05-01T00:51:35.678Z,26.07
2018-05-01T00:52:35.575Z,24.93
2018-05-01T00:53:35.553Z,23.03
2018-05-01T00:54:35.532Z,22.08
2018-05-01T00:55:35.509Z,19.70
2018-05-01T00:56:35.486Z,20.17
2018-05-01T00:57:35.464Z,22.08
2018-05-01T00:58:35.446Z,19.60
2018-05-01T00:59:35.418Z,21.79
2018-05-01T01:00:35.396Z,25.03
2018-05-01T01:01:35.373Z,24.55
2018-05-01T01:02:35.351Z,24.65
2018-05-01T01:03:35.408Z,24.08
2018-05-01T01:04:35.308Z,20.27
2018-05-01T01:05:35.383Z,16.94
2018-05-01T01:06:36.012Z,16.37
2018-05-01T01:07:35.238Z,15.80
2018-05-01T01:08:35.215Z,14.84
2018-05-01T01:09:35.193Z,15.13
2018-05-01T01:10:35.172Z,16.27
2018-05-01T01:11:35.148Z,16.75
2018-05-01T01:12:35.125Z,16.37
2018-05-01T01:13:35.102Z,13.32
2018-05-01T01:14:35.081Z,11.80
2018-05-01T01:15:35.057Z,11.80
2018-05-01T01:16:35.035Z,11.99
2018-05-01T01:17:35.011Z,11.90
2018-05-01T01:18:34.989Z,11.42
2018-05-01T01:19:34.967Z,13.51
2018-05-01T01:20:34.944Z,12.65
2018-05-01T01:21:34.921Z,14.08
2018-05-01T01:22:34.898Z,16.85
2018-05-01T01:23:34.878Z,16.65
2018-05-01T01:24:34.852Z,15.42
2018-05-01T01:25:34.830Z,14.18
2018-05-01T01:26:34.808Z,11.61
2018-05-01T01:27:34.784Z,9.70
2018-05-01T01:28:34.771Z,7.51
2018-05-01T01:29:34.743Z,7.71
2018-05-01T01:30:34.721Z,9.99
2018-05-01T01:31:34.694Z,12.46
2018-05-01T01:32:34.671Z,11.71
2018-05-01T01:33:34.648Z,15.61
2018-05-01T01:34:34.625Z,13.99
2018-05-01T01:35:34.604Z,13.60
2018-05-01T01:36:34.580Z,13.51
2018-05-01T01:37:34.558Z,12.75
2018-05-01T01:38:34.535Z,12.75
2018-05-01T01:39:34.513Z,12.08
2018-05-01T01:40:34.489Z,11.80
2018-05-01T01:41:34.467Z,12.18
2018-05-01T01:42:34.445Z,10.47
2018-05-01T01:43:34.421Z,9.33
2018-05-01T01:44:34.401Z,7.71
2018-05-01T01:45:34.376Z,6.66
2018-05-01T01:46:34.353Z,6.28
2018-05-01T01:47:34.330Z,5.52
2018-05-01T01:48:34.307Z,4.85
2018-05-01T01:49:34.288Z,7.60
2018-05-01T01:50:34.263Z,7.42
2018-05-01T01:51:34.239Z,7.32
2018-05-01T01:52:34.216Z,6.09
2018-05-01T01:53:34.194Z,3.42
2018-05-01T01:54:34.171Z,3.14
2018-05-01T01:55:34.148Z,2.00
2018-05-01T01:56:34.128Z,1.52
2018-05-01T01:57:34.104Z,2.95
2018-05-01T01:58:34.081Z,1.23
2018-05-01T01:59:34.058Z,1.61
2018-05-01T02:00:34.035Z,0.95
2018-05-01T02:01:34.012Z,0.38
2018-05-01T02:02:33.989Z,0.00
2018-05-01T02:03:33.967Z,0.00
2018-05-01T02:04:33.943Z,0.00
2018-05-01T02:05:33.919Z,0.00
2018-05-01T02:06:33.898Z,0.00
2018-05-01T02:07:33.876Z,0.00
2018-05-01T02:08:33.852Z,0.00
2018-05-01T02:09:33.829Z,0.00
2018-05-01T02:10:33.807Z,2.95
2018-05-01T02:11:33.786Z,5.04
2018-05-01T02:12:33.760Z,4.75
2018-05-01T02:13:33.736Z,4.18
2018-05-01T02:14:33.719Z,8.84
2018-05-01T02:15:33.691Z,7.99
2018-05-01T02:16:33.668Z,7.23
2018-05-01T02:17:33.648Z,9.61
2018-05-01T02:18:33.623Z,10.36
2018-05-01T02:19:33.600Z,9.32
2018-05-01T02:20:35.082Z,6.18
2018-05-01T02:21:33.556Z,5.80
2018-05-01T02:22:33.531Z,5.51
2018-05-01T02:23:33.509Z,8.84
2018-05-01T02:24:33.485Z,8.18
2018-05-01T02:25:33.463Z,7.99
2018-05-01T02:26:33.438Z,6.75
2018-05-01T02:27:33.417Z,10.65
2018-05-01T02:28:33.391Z,7.70
2018-05-01T02:29:33.368Z,9.13
2018-05-01T02:30:33.347Z,9.13
2018-05-01T02:31:33.324Z,8.56
2018-05-01T02:32:33.301Z,6.75
2018-05-01T02:33:33.276Z,6.85
2018-05-01T02:34:33.256Z,7.13
2018-05-01T02:35:33.232Z,6.66
2018-05-01T02:36:33.209Z,7.51
2018-05-01T02:37:33.186Z,6.75
2018-05-01T02:38:33.162Z,5.13
2018-05-01T02:39:33.138Z,6.37
2018-05-01T02:40:33.116Z,7.13
2018-05-01T02:41:33.091Z,6.46
2018-05-01T02:42:33.069Z,4.57
2018-05-01T02:43:33.046Z,4.66
2018-05-01T02:44:33.022Z,4.94
2018-05-01T02:45:33.000Z,6.18
2018-05-01T02:46:32.977Z,5.42
2018-05-01T02:47:32.958Z,6.09
2018-05-01T02:48:32.935Z,7.03
2018-05-01T02:49:32.907Z,5.99
2018-05-01T02:50:32.884Z,6.18
2018-05-01T02:51:32.861Z,4.85
2018-05-01T02:52:32.837Z,5.41
2018-05-01T02:53:32.815Z,5.04
2018-05-01T02:54:32.794Z,2.47
2018-05-01T02:55:32.769Z,0.85
2018-05-01T02:56:32.748Z,0.00
2018-05-01T02:57:32.756Z,1.33
2018-05-01T02:58:32.701Z,3.61
2018-05-01T02:59:32.675Z,5.80
2018-05-01T03:00:32.651Z,3.14
2018-05-01T03:01:32.631Z,1.61
2018-05-01T03:02:32.607Z,1.42
2018-05-01T03:03:32.582Z,2.37
2018-05-01T03:04:32.558Z,1.52
2018-05-01T03:05:32.536Z,1.71
2018-05-01T03:06:32.513Z,1.71
2018-05-01T03:07:32.491Z,3.04
2018-05-01T03:08:32.467Z,3.23
2018-05-01T03:09:32.444Z,3.23
2018-05-01T03:10:32.420Z,3.70
2018-05-01T03:11:32.398Z,3.42
2018-05-01T03:12:32.375Z,3.33
2018-05-01T03:13:32.355Z,3.14
2018-05-01T03:14:32.329Z,2.47
2018-05-01T03:15:32.307Z,3.33
2018-05-01T03:16:32.283Z,1.61
2018-05-01T03:17:32.261Z,3.04
2018-05-01T03:18:32.235Z,3.04
2018-05-01T03:19:32.213Z,3.14
2018-05-01T03:20:32.188Z,11.22
2018-05-01T03:21:32.166Z,10.08
2018-05-01T03:22:32.144Z,9.03
2018-05-01T03:23:32.121Z,7.23
2018-05-01T03:24:32.097Z,17.12
2018-05-01T03:25:32.073Z,17.69
2018-05-01T03:26:32.051Z,17.31
2018-05-01T03:27:32.029Z,14.84
2018-05-01T03:28:32.004Z,17.12
2018-05-01T03:29:31.981Z,19.02
2018-05-01T03:30:31.959Z,18.84
2018-05-01T03:31:31.935Z,18.45
2018-05-01T03:32:31.916Z,18.55
2018-05-01T03:33:31.891Z,17.69
2018-05-01T03:34:31.866Z,11.41
2018-05-01T03:35:31.843Z,8.65
2018-05-01T03:36:31.821Z,6.18
2018-05-01T03:37:31.798Z,7.99
2018-05-01T03:38:31.777Z,12.27
2018-05-01T03:39:31.753Z,11.03
2018-05-01T03:40:31.731Z,9.89
2018-05-01T03:41:31.705Z,7.13
2018-05-01T03:42:31.683Z,4.57
2018-05-01T03:43:31.660Z,4.37
2018-05-01T03:44:31.636Z,3.70
2018-05-01T03:45:31.614Z,5.61
2018-05-01T03:46:31.590Z,5.71
2018-05-01T03:47:31.567Z,2.85
2018-05-01T03:48:31.544Z,2.37
2018-05-01T03:49:31.520Z,1.52
2018-05-01T03:50:31.498Z,1.71
2018-05-01T03:51:31.476Z,2.85
2018-05-01T03:52:31.452Z,2.66
2018-05-01T03:53:31.428Z,1.52
2018-05-01T03:54:31.405Z,1.61
2018-05-01T03:55:31.383Z,3.33
2018-05-01T03:56:31.360Z,2.95
2018-05-01T03:57:31.337Z,2.95
2018-05-01T03:58:31.314Z,4.18
2018-05-01T03:59:31.291Z,3.70
2018-05-01T04:00:31.270Z,4.28
2018-05-01T04:01:31.246Z,4.94
2018-05-01T04:02:31.221Z,7.13
2018-05-01T04:03:31.199Z,7.89
2018-05-01T04:04:31.177Z,7.04
2018-05-01T04:05:31.155Z,8.46
2018-05-01T04:06:31.130Z,7.42
2018-05-01T04:07:31.107Z,5.99
2018-05-01T04:08:31.083Z,3.70
2018-05-01T04:09:31.060Z,5.51
2018-05-01T04:10:31.041Z,6.94
2018-05-01T04:11:31.013Z,6.75
2018-05-01T04:12:30.990Z,11.60
2018-05-01T04:13:30.968Z,15.97
2018-05-01T04:14:30.945Z,15.02
2018-05-01T04:15:30.922Z,10.55
2018-05-01T04:16:30.897Z,9.89
2018-05-01T04:17:30.874Z,10.36
2018-05-01T04:18:30.854Z,7.70
2018-05-01T04:19:30.829Z,5.61
2018-05-01T04:20:30.809Z,5.23
2018-05-01T04:21:30.782Z,7.99
2018-05-01T04:22:30.759Z,14.17
2018-05-01T04:23:30.737Z,15.02
2018-05-01T04:24:30.712Z,13.78
2018-05-01T04:25:30.691Z,12.55
2018-05-01T04:26:30.667Z,13.69
2018-05-01T04:27:30.644Z,13.02
2018-05-01T04:28:30.624Z,12.55
2018-05-01T04:29:30.598Z,11.22
2018-05-01T04:30:30.575Z,9.41
2018-05-01T04:31:30.550Z,8.65
2018-05-01T04:32:30.529Z,9.32
2018-05-01T04:33:30.504Z,11.79
2018-05-01T04:34:30.484Z,15.31
2018-05-01T04:35:30.458Z,14.92
2018-05-01T04:36:30.434Z,16.35
2018-05-01T04:37:30.412Z,16.16
2018-05-01T04:38:30.388Z,16.92
2018-05-01T04:39:30.368Z,19.39
2018-05-01T04:40:30.342Z,19.59
2018-05-01T04:41:30.319Z,13.31
2018-05-01T04:42:30.295Z,14.73
2018-05-01T04:43:30.273Z,15.11
2018-05-01T04:44:30.248Z,19.01
2018-05-01T04:45:30.226Z,25.38
2018-05-01T04:46:30.204Z,20.63
2018-05-01T04:47:30.180Z,22.53
2018-05-01T04:48:30.156Z,19.39
2018-05-01T04:49:30.134Z,15.40
2018-05-01T04:50:30.110Z,13.31
2018-05-01T04:51:30.088Z,14.73
2018-05-01T04:52:30.063Z,16.06
2018-05-01T04:53:30.041Z,19.39
2018-05-01T04:54:30.017Z,22.34
2018-05-01T04:55:29.994Z,17.78
2018-05-01T04:56:31.471Z,14.64
2018-05-01T04:57:29.946Z,11.79
2018-05-01T04:58:29.992Z,18.82
2018-05-01T04:59:29.900Z,17.97
2018-05-01T05:00:29.877Z,14.83
2018-05-01T05:01:29.853Z,11.88
2018-05-01T05:02:30.581Z,8.36
2018-05-01T05:03:29.806Z,8.46
2018-05-01T05:04:29.784Z,7.70
2018-05-01T05:05:29.761Z,9.79
2018-05-01T05:06:29.736Z,10.08
2018-05-01T05:07:29.717Z,8.56
2018-05-01T05:08:29.690Z,8.65
2018-05-01T05:09:29.762Z,8.84
2018-05-01T05:10:29.644Z,7.32
2018-05-01T05:11:29.619Z,8.36
2018-05-01T05:12:29.595Z,10.27
2018-05-01T05:13:29.576Z,15.78
2018-05-01T05:14:29.550Z,12.84
2018-05-01T05:15:29.527Z,10.64
2018-05-01T05:16:29.503Z,9.79
2018-05-01T05:17:29.479Z,9.89
2018-05-01T05:18:29.455Z,10.27
2018-05-01T05:19:29.432Z,12.93
2018-05-01T05:20:29.412Z,11.79
2018-05-01T05:21:29.386Z,8.46
2018-05-01T05:22:29.363Z,6.37
2018-05-01T05:23:29.340Z,10.27
2018-05-01T05:24:29.315Z,10.46
2018-05-01T05:25:29.293Z,9.79
2018-05-01T05:26:29.273Z,11.60
2018-05-01T05:27:29.246Z,10.36
2018-05-01T05:28:29.222Z,16.35
2018-05-01T05:29:29.199Z,13.69
2018-05-01T05:30:29.175Z,8.94
2018-05-01T05:31:29.153Z,8.75
2018-05-01T05:32:29.131Z,9.31
2018-05-01T05:33:29.106Z,9.60
2018-05-01T05:34:29.084Z,16.83
2018-05-01T05:35:29.061Z,10.55
2018-05-01T05:36:29.036Z,5.89
2018-05-01T05:37:29.012Z,7.03
2018-05-01T05:38:28.989Z,9.03
2018-05-01T05:39:28.967Z,9.41
2018-05-01T05:40:28.943Z,10.93
2018-05-01T05:41:28.920Z,7.42
2018-05-01T05:42:28.896Z,6.84
2018-05-01T05:43:28.873Z,5.89
2018-05-01T05:44:28.854Z,10.93
2018-05-01T05:45:28.826Z,14.73
2018-05-01T05:46:28.807Z,12.64
2018-05-01T05:47:28.780Z,11.22
2018-05-01T05:48:28.755Z,9.79
2018-05-01T05:49:28.733Z,10.74
2018-05-01T05:50:30.211Z,9.79
2018-05-01T05:51:28.690Z,10.64
2018-05-01T05:52:28.663Z,11.98
2018-05-01T05:53:28.639Z,15.40
2018-05-01T05:54:28.649Z,16.64
2018-05-01T05:55:28.597Z,15.88
2018-05-01T05:56:28.569Z,13.78
2018-05-01T05:57:28.546Z,15.97
2018-05-01T05:58:28.523Z,11.60
2018-05-01T05:59:28.500Z,8.65
2018-05-01T06:00:28.476Z,6.94
2018-05-01T06:01:28.453Z,13.12
2018-05-01T06:02:28.429Z,9.98
2018-05-01T06:03:28.406Z,6.94
2018-05-01T06:04:28.383Z,5.41
2018-05-01T06:05:28.359Z,7.32
2018-05-01T06:06:28.336Z,10.27
2018-05-01T06:07:28.317Z,19.20
2018-05-01T06:08:28.293Z,21.48
2018-05-01T06:09:28.266Z,23.39
2018-05-01T06:10:28.242Z,22.63
2018-05-01T06:11:28.219Z,21.48
2018-05-01T06:12:28.950Z,20.15
2018-05-01T06:13:28.237Z,19.11
2018-05-01T06:14:28.150Z,16.73
2018-05-01T06:15:28.125Z,21.48
2018-05-01T06:16:28.101Z,24.43
2018-05-01T06:17:28.078Z,24.05
2018-05-01T06:18:28.056Z,25.29
2018-05-01T06:19:28.036Z,22.25
2018-05-01T06:20:28.008Z,19.78
2018-05-01T06:21:27.984Z,18.62
2018-05-01T06:22:27.962Z,21.47
2018-05-01T06:23:34.696Z,21.47
2018-05-01T06:24:27.914Z,19.10
2018-05-01T06:25:27.891Z,20.25
2018-05-01T06:26:27.867Z,19.39
2018-05-01T06:27:27.843Z,18.35
2018-05-01T06:28:27.820Z,17.02
2018-05-01T06:29:27.797Z,15.50
2018-05-01T06:30:27.772Z,13.12
2018-05-01T06:31:27.751Z,13.02
2018-05-01T06:32:27.727Z,24.72
2018-05-01T06:33:27.702Z,20.53
2018-05-01T06:34:27.680Z,18.06
2018-05-01T06:35:27.657Z,16.25
2018-05-01T06:36:27.631Z,12.55
2018-05-01T06:37:27.647Z,15.78
2018-05-01T06:38:27.584Z,14.54
2018-05-01T06:39:27.561Z,16.35
2018-05-01T06:40:27.538Z,17.87
2018-05-01T06:41:27.513Z,13.59
2018-05-01T06:42:27.490Z,14.64
2018-05-01T06:43:27.468Z,13.31
2018-05-01T06:44:27.444Z,9.98
2018-05-01T06:45:30.422Z,7.60
2018-05-01T06:46:27.397Z,10.46
2018-05-01T06:47:27.373Z,10.17
2018-05-01T06:48:27.350Z,12.37
2018-05-01T06:49:27.326Z,17.21
2018-05-01T06:50:27.304Z,13.78
2018-05-01T06:51:27.279Z,16.83
2018-05-01T06:52:27.256Z,29.57
2018-05-01T06:53:27.233Z,24.24
2018-05-01T06:54:27.211Z,21.01
2018-05-01T06:55:27.187Z,22.45
2018-05-01T06:56:27.163Z,31.95
2018-05-01T06:57:27.143Z,29.28
2018-05-01T06:58:27.116Z,38.60
2018-05-01T06:59:27.096Z,36.22
2018-05-01T07:00:27.072Z,30.90
2018-05-01T07:01:27.046Z,25.29
2018-05-01T07:02:29.276Z,29.85
2018-05-01T07:03:27.000Z,27.09
2018-05-01T07:04:27.149Z,37.74
2018-05-01T07:05:27.003Z,38.89
2018-05-01T07:06:26.929Z,32.90
2018-05-01T07:07:26.908Z,24.43
2018-05-01T07:08:26.890Z,26.72
2018-05-01T07:09:26.860Z,28.42
2018-05-01T07:10:26.837Z,21.21
2018-05-01T07:11:26.813Z,15.69
2018-05-01T07:12:26.791Z,15.50
2018-05-01T07:13:26.766Z,33.37
2018-05-01T07:14:26.744Z,39.55
2018-05-01T07:15:26.724Z,47.54
2018-05-01T07:16:26.698Z,45.16
2018-05-01T07:17:26.674Z,39.07
2018-05-01T07:18:26.652Z,40.31
2018-05-01T07:19:26.627Z,38.22
2018-05-01T07:20:26.604Z,33.37
2018-05-01T07:21:26.582Z,30.52
2018-05-01T07:22:26.559Z,39.45
2018-05-01T07:23:26.534Z,40.31
2018-05-01T07:24:28.763Z,37.46
2018-05-01T07:25:26.487Z,39.84
2018-05-01T07:26:26.466Z,42.50
2018-05-01T07:27:26.484Z,40.31
2018-05-01T07:28:26.485Z,37.55
2018-05-01T07:29:26.395Z,34.42
2018-05-01T07:30:26.371Z,33.09
2018-05-01T07:31:26.349Z,29.66
2018-05-01T07:32:26.324Z,32.80
2018-05-01T07:33:26.301Z,30.80
2018-05-01T07:34:26.279Z,33.47
2018-05-01T07:35:26.255Z,26.34
2018-05-01T07:36:26.231Z,31.09
2018-05-01T07:37:26.207Z,30.82
2018-05-01T07:38:26.185Z,28.33
2018-05-01T07:39:26.162Z,31.58
2018-05-01T07:40:26.137Z,33.48
2018-05-01T07:41:26.190Z,35.08
2018-05-01T07:42:26.092Z,31.09
2018-05-01T07:43:26.067Z,29.19
2018-05-01T07:44:26.043Z,30.34
2018-05-01T07:45:26.020Z,34.42
2018-05-01T07:46:25.997Z,30.99
2018-05-01T07:47:25.974Z,23.20
2018-05-01T07:48:25.950Z,25.01
2018-05-01T07:49:25.927Z,21.67
2018-05-01T07:50:25.905Z,15.59
2018-05-01T07:51:25.882Z,21.77
2018-05-01T07:52:25.862Z,15.31
2018-05-01T07:53:25.835Z,15.12
2018-05-01T07:54:25.812Z,16.83
2018-05-01T07:55:25.863Z,14.93
2018-05-01T07:56:25.763Z,23.39
2018-05-01T07:57:25.742Z,24.15
2018-05-01T07:58:25.718Z,20.15
2018-05-01T07:59:25.696Z,17.02
2018-05-01T08:00:25.682Z,23.00
2018-05-01T08:01:25.648Z,12.93
2018-05-01T08:02:25.624Z,17.87
2018-05-01T08:03:25.601Z,13.97
2018-05-01T08:04:25.577Z,15.69
2018-05-01T08:05:25.556Z,15.21
2018-05-01T08:06:25.531Z,12.84
2018-05-01T08:07:25.508Z,13.97
2018-05-01T08:08:25.484Z,10.08
2018-05-01T08:09:25.462Z,12.26
2018-05-01T08:10:25.445Z,12.45
2018-05-01T08:11:25.419Z,13.97
2018-05-01T08:12:26.140Z,13.69
2018-05-01T08:13:25.368Z,15.02
2018-05-01T08:14:25.347Z,14.64
2018-05-01T08:15:25.321Z,10.17
2018-05-01T08:16:25.296Z,9.79
2018-05-01T08:17:25.272Z,7.13
2018-05-01T08:18:25.251Z,7.32
2018-05-01T08:19:25.250Z,10.74
2018-05-01T08:20:25.201Z,8.17
2018-05-01T08:21:25.178Z,16.25
2018-05-01T08:22:25.159Z,12.84
2018-05-01T08:23:25.133Z,13.21
2018-05-01T08:24:25.198Z,12.36
2018-05-01T08:25:25.086Z,11.12
2018-05-01T08:26:25.063Z,5.61
2018-05-01T08:27:25.040Z,3.23
2018-05-01T08:28:25.019Z,9.60
2018-05-01T08:29:24.991Z,7.98
2018-05-01T08:30:24.970Z,7.42
2018-05-01T08:31:24.946Z,3.33
2018-05-01T08:32:24.920Z,1.61
2018-05-01T08:33:24.898Z,0.00
2018-05-01T08:34:24.874Z,8.08
2018-05-01T08:35:24.851Z,19.87
2018-05-01T08:36:24.828Z,22.44
2018-05-01T08:37:24.805Z,17.30
2018-05-01T08:38:24.782Z,18.54
2018-05-01T08:39:24.766Z,16.06
2018-05-01T08:40:24.735Z,11.60
2018-05-01T08:41:24.710Z,18.06
2018-05-01T08:42:24.688Z,12.84
2018-05-01T08:43:24.664Z,15.78
2018-05-01T08:44:27.643Z,16.92
2018-05-01T08:45:24.673Z,12.84
2018-05-01T08:46:24.594Z,15.11
2018-05-01T08:47:24.575Z,21.67
2018-05-01T08:48:24.548Z,23.58
2018-05-01T08:49:24.523Z,15.78
2018-05-01T08:50:24.501Z,15.50
2018-05-01T08:51:24.478Z,11.60
2018-05-01T08:52:24.457Z,8.94
2018-05-01T08:53:24.429Z,10.08
2018-05-01T08:54:24.407Z,13.60
2018-05-01T08:55:24.383Z,7.99
2018-05-01T08:56:24.360Z,11.98
2018-05-01T08:57:24.357Z,13.41
2018-05-01T08:58:24.313Z,18.45
2018-05-01T08:59:24.291Z,12.65
2018-05-01T09:00:24.268Z,13.79
2018-05-01T09:01:24.243Z,14.84
2018-05-01T09:02:24.223Z,18.16
2018-05-01T09:03:24.197Z,29.58
2018-05-01T09:04:24.177Z,32.91
2018-05-01T09:05:24.153Z,25.87
2018-05-01T09:06:24.132Z,33.10
2018-05-01T09:07:24.104Z,24.73
2018-05-01T09:08:24.080Z,17.88
2018-05-01T09:09:24.143Z,37.48
2018-05-01T09:10:24.036Z,21.40
2018-05-01T09:11:24.012Z,11.70
2018-05-01T09:12:23.989Z,23.02
2018-05-01T09:13:23.966Z,31.21
2018-05-01T09:14:23.942Z,24.55
2018-05-01T09:15:23.921Z,45.09
2018-05-01T09:16:23.896Z,34.24
2018-05-01T09:17:23.875Z,33.39
2018-05-01T09:18:24.231Z,32.34
2018-05-01T09:19:23.830Z,41.28
2018-05-01T09:20:23.807Z,39.28
2018-05-01T09:21:23.783Z,38.62
2018-05-01T09:22:23.760Z,40.33
2018-05-01T09:23:23.739Z,30.44
2018-05-01T09:24:23.715Z,30.44
2018-05-01T09:25:23.692Z,29.01
2018-05-01T09:26:23.678Z,33.20
2018-05-01T09:27:23.648Z,33.48
2018-05-01T09:28:23.628Z,33.88
2018-05-01T09:29:23.602Z,26.65
2018-05-01T09:30:23.579Z,29.12
2018-05-01T09:31:23.557Z,34.55
2018-05-01T09:32:23.533Z,36.45
2018-05-01T09:33:23.511Z,43.40
2018-05-01T09:34:24.241Z,37.12
2018-05-01T09:35:23.481Z,38.35
2018-05-01T09:36:23.455Z,41.21
2018-05-01T09:37:23.422Z,26.84
2018-05-01T09:38:23.401Z,47.20
2018-05-01T09:39:23.379Z,31.50
2018-05-01T09:40:23.356Z,27.69
2018-05-01T09:41:23.334Z,41.02
2018-05-01T09:42:23.311Z,42.73
2018-05-01T09:43:23.291Z,33.23
2018-05-01T09:44:23.269Z,25.13
2018-05-01T09:45:23.245Z,16.09
2018-05-01T09:46:23.225Z,22.10
2018-05-01T09:47:23.233Z,21.91
2018-05-01T09:48:23.215Z,36.58
2018-05-01T09:49:23.159Z,62.94
2018-05-01T09:50:23.138Z,49.99
2018-05-01T09:51:23.118Z,58.84
2018-05-01T09:52:23.093Z,37.04
2018-05-01T09:53:23.145Z,51.32
2018-05-01T09:54:23.050Z,52.66
2018-05-01T09:55:23.029Z,54.49
2018-05-01T09:56:23.008Z,50.11
2018-05-01T09:57:22.986Z,45.84
2018-05-01T09:58:22.965Z,53.00
2018-05-01T09:59:22.944Z,52.23
2018-05-01T10:00:22.928Z,42.80
2018-05-01T10:01:22.901Z,53.09
2018-05-01T10:02:22.881Z,53.09
2018-05-01T10:03:22.860Z,51.09
2018-05-01T10:04:22.837Z,51.66
2018-05-01T10:05:22.823Z,60.94
2018-05-01T10:06:22.796Z,59.28
2018-05-01T10:07:22.774Z,49.68
2018-05-01T10:08:22.754Z,42.82
2018-05-01T10:09:22.734Z,57.98
2018-05-01T10:10:22.712Z,65.80
2018-05-01T10:11:22.693Z,59.60
2018-05-01T10:12:22.687Z,46.63
2018-05-01T10:13:22.652Z,55.69
2018-05-01T10:14:22.630Z,55.60
2018-05-01T10:15:22.609Z,55.47
2018-05-01T10:16:22.589Z,52.23
2018-05-01T10:17:22.569Z,50.07
2018-05-01T10:18:22.548Z,47.75
2018-05-01T10:19:22.527Z,59.76
2018-05-01T10:20:22.506Z,54.80
2018-05-01T10:21:22.486Z,41.39
2018-05-01T10:22:22.465Z,44.06
2018-05-01T10:23:22.445Z,49.78
2018-05-01T10:24:22.426Z,65.89
2018-05-01T10:25:22.404Z,70.67
2018-05-01T10:26:22.384Z,65.70
2018-05-01T10:27:22.365Z,71.11
2018-05-01T10:28:22.344Z,81.02
2018-05-01T10:29:22.324Z,83.17
2018-05-01T10:30:22.304Z,78.03
2018-05-01T10:31:22.283Z,67.20
2018-05-01T10:32:22.263Z,70.06
2018-05-01T10:33:22.241Z,72.12
2018-05-01T10:34:22.221Z,63.76
2018-05-01T10:35:22.200Z,76.35
2018-05-01T10:36:22.179Z,78.64
2018-05-01T10:37:22.159Z,79.11
2018-05-01T10:38:22.141Z,74.54
2018-05-01T10:39:22.118Z,69.58
2018-05-01T10:40:22.105Z,56.43
2018-05-01T10:41:22.085Z,73.07
2018-05-01T10:42:22.057Z,66.31
2018-05-01T10:43:22.037Z,70.50
2018-05-01T10:44:22.015Z,61.54
2018-05-01T10:45:21.994Z,39.53
2018-05-01T10:46:21.975Z,49.73
2018-05-01T10:47:21.953Z,54.21
2018-05-01T10:48:21.931Z,55.07
2018-05-01T10:49:22.000Z,53.47
2018-05-01T10:50:21.956Z,69.29
2018-05-01T10:51:21.871Z,84.60
2018-05-01T10:52:21.848Z,79.07
2018-05-01T10:53:21.827Z,72.50
2018-05-01T10:54:21.809Z,62.30
2018-05-01T10:55:21.790Z,62.15
2018-05-01T10:56:21.767Z,58.62
2018-05-01T10:57:21.744Z,51.76
2018-05-01T10:58:21.724Z,46.42
2018-05-01T10:59:21.704Z,53.00
2018-05-01T11:00:21.683Z,49.76
2018-05-01T11:01:21.662Z,51.97
2018-05-01T11:02:21.642Z,46.06
2018-05-01T11:03:21.620Z,59.89
2018-05-01T11:04:21.602Z,67.39
2018-05-01T11:05:21.578Z,83.36
2018-05-01T11:06:21.559Z,83.07
2018-05-01T11:07:21.538Z,73.21
2018-05-01T11:08:21.589Z,75.49
2018-05-01T11:09:21.497Z,85.02
2018-05-01T11:10:21.477Z,70.53
2018-05-01T11:11:21.455Z,67.10
2018-05-01T11:12:21.438Z,58.36
2018-05-01T11:13:21.413Z,70.09
2018-05-01T11:14:21.394Z,69.71
2018-05-01T11:15:21.374Z,79.06
2018-05-01T11:16:21.355Z,79.06
2018-05-01T11:17:21.368Z,70.76
2018-05-01T11:18:21.311Z,68.38
2018-05-01T11:19:21.290Z,75.62
2018-05-01T11:20:21.270Z,80.49
2018-05-01T11:21:21.251Z,82.59
2018-05-01T11:22:21.229Z,77.62
2018-05-01T11:23:21.210Z,62.37
2018-05-01T11:24:21.189Z,67.99
2018-05-01T11:25:21.171Z,61.60
2018-05-01T11:26:21.148Z,71.52
2018-05-01T11:27:21.128Z,69.90
2018-05-01T11:28:21.109Z,76.77
2018-05-01T11:29:21.088Z,93.93
2018-05-01T11:30:21.067Z,70.42
2018-05-01T11:31:21.048Z,70.22
2018-05-01T11:32:21.027Z,62.75
2018-05-01T11:33:21.008Z,66.94
2018-05-01T11:34:20.993Z,71.91
2018-05-01T11:35:23.969Z,70.67
2018-05-01T11:36:20.947Z,80.24
2018-05-01T11:37:20.927Z,81.25
2018-05-01T11:38:20.907Z,76.71
2018-05-01T11:39:20.887Z,80.91
2018-05-01T11:40:20.866Z,84.20
2018-05-01T11:41:23.098Z,89.26
2018-05-01T11:42:20.826Z,84.69
2018-05-01T11:43:20.806Z,88.31
2018-05-01T11:44:20.785Z,82.01
2018-05-01T11:45:20.770Z,68.51
2018-05-01T11:46:20.765Z,65.55
2018-05-01T11:47:20.727Z,70.89
2018-05-01T11:48:20.705Z,83.24
2018-05-01T11:49:20.687Z,80.62
2018-05-01T11:50:20.667Z,84.72
2018-05-01T11:51:20.647Z,76.04
2018-05-01T11:52:20.626Z,81.01
2018-05-01T11:53:20.606Z,91.50
2018-05-01T11:54:20.586Z,89.50
2018-05-01T11:55:20.567Z,79.86
2018-05-01T11:56:20.548Z,75.66
2018-05-01T11:57:20.528Z,98.27
2018-05-01T11:58:23.512Z,87.87
2018-05-01T11:59:20.489Z,90.17
2018-05-01T12:00:20.470Z,94.56
2018-05-01T12:01:20.449Z,83.39
2018-05-01T12:02:20.430Z,92.17
2018-05-01T12:03:20.411Z,97.99
2018-05-01T12:04:21.143Z,79.80
2018-05-01T12:05:20.372Z,93.07
2018-05-01T12:06:20.350Z,83.34
2018-05-01T12:07:20.333Z,79.33
2018-05-01T12:08:20.312Z,87.82
2018-05-01T12:09:20.291Z,93.21
2018-05-01T12:10:20.272Z,98.47
2018-05-01T12:11:20.253Z,92.45
2018-05-01T12:12:20.233Z,92.12
2018-05-01T12:13:20.215Z,77.89
2018-05-01T12:14:20.197Z,83.05
2018-05-01T12:15:20.176Z,80.19
2018-05-01T12:16:20.157Z,94.31
2018-05-01T12:17:20.136Z,89.16
2018-05-01T12:18:20.120Z,95.84
2018-05-01T12:19:20.100Z,90.02
2018-05-01T12:20:20.078Z,96.70
2018-05-01T12:21:20.059Z,95.65
2018-05-01T12:22:20.042Z,79.65
2018-05-01T12:23:20.025Z,81.76
2018-05-01T12:24:20.003Z,93.79
2018-05-01T12:25:19.983Z,90.31
2018-05-01T12:26:19.965Z,99.99
2018-05-01T12:27:19.946Z,99.99
2018-05-01T12:28:19.990Z,95.65
2018-05-01T12:29:19.906Z,99.99
2018-05-01T12:30:19.890Z,99.99
2018-05-01T12:31:19.870Z,99.99
2018-05-01T12:32:19.850Z,95.65
2018-05-01T12:33:19.831Z,94.79
2018-05-01T12:34:19.815Z,87.44
2018-05-01T12:35:19.794Z,91.55
2018-05-01T12:36:21.281Z,99.99
2018-05-01T12:37:19.757Z,99.99
2018-05-01T12:38:19.739Z,99.99
2018-05-01T12:39:19.719Z,99.99
2018-05-01T12:40:19.701Z,99.99
2018-05-01T12:41:19.681Z,99.99
2018-05-01T12:42:20.453Z,99.99
2018-05-01T12:43:19.647Z,99.99
2018-05-01T12:44:19.629Z,89.25
2018-05-01T12:45:19.612Z,99.99
2018-05-01T12:46:19.590Z,99.99
2018-05-01T12:47:19.572Z,99.99
2018-05-01T12:48:19.675Z,95.98
2018-05-01T12:49:19.534Z,93.31
2018-05-01T12:50:19.519Z,99.99
2018-05-01T12:51:19.500Z,99.99
2018-05-01T12:52:19.531Z,99.99
2018-05-01T12:53:19.463Z,99.99
2018-05-01T12:54:19.445Z,99.99
2018-05-01T12:55:19.428Z,99.85
2018-05-01T12:56:19.409Z,99.99
2018-05-01T12:57:19.391Z,99.04
2018-05-01T12:58:19.374Z,95.17